.
WxDataArchive / Data Records for 2010-09-14
2010-09-13 September 2010 2010-09-15

Data Records for Tuesday, 14 September 2010

Time	Temp	Chill	HIndex	Humid	Dewpt	 Wind 	HiWind	WindDir	Rain 	Barom 
-----	----	-----	------	-----	-----	------	------	-------	-----	----- 
00:00	62.4	62.4	62.4	60	48.3	0	0	---	0.00	30.002 
00:05	62.1	62.1	62.1	61	48.5	0	0	---	0.00	30.002 
00:10	62.0	62.0	62.0	61	48.4	0	0	---	0.00	30.002 
00:15	61.5	61.5	61.5	62	48.4	0	0	---	0.00	30.001 
00:20	61.0	61.0	61.0	64	48.7	0	0	---	0.00	30.001 
00:25	60.5	60.5	60.5	65	48.7	0	0	---	0.00	30.001 
00:30	60.2	60.2	60.2	65	48.4	0	0	---	0.00	30.013 
00:35	59.9	59.9	59.9	66	48.5	0	0	---	0.00	30.013 
00:40	59.5	59.5	59.5	67	48.5	0	0	---	0.00	30.013 
00:45	59.2	59.2	59.2	69	49.0	0	0	---	0.00	30.017 
00:50	58.9	58.9	58.9	69	48.7	0	0	---	0.00	30.017 
00:55	58.6	58.6	58.6	70	48.8	0	0	---	0.00	30.017 
01:00	58.3	58.3	58.3	71	48.9	0	0	---	0.00	30.019 
01:05	58.0	58.0	58.0	72	49.0	0	0	---	0.00	30.019 
01:10	57.6	57.6	57.6	73	49.0	0	0	---	0.00	30.019 
01:15	57.5	57.5	57.5	74	49.3	0	0	---	0.00	30.018 
01:20	57.2	57.2	57.2	75	49.3	0	0	---	0.00	30.018 
01:25	57.0	57.0	57.0	75	49.2	0	0	---	0.00	30.018 
01:30	56.9	56.9	56.9	76	49.4	0	0	---	0.00	30.018 
01:35	56.7	56.7	56.7	77	49.6	0	0	---	0.00	30.018 
01:40	56.6	56.6	56.6	78	49.8	0	0	---	0.00	30.018 
01:45	56.6	56.6	56.6	79	50.2	0	0	---	0.00	30.021 
01:50	56.5	56.5	56.5	79	50.1	0	0	---	0.00	30.021 
01:55	56.3	56.3	56.3	79	49.9	0	0	---	0.00	30.021 
02:00	56.3	56.3	56.3	79	49.9	0	0	---	0.00	30.023 
02:05	56.2	56.2	56.2	80	50.1	0	0	---	0.00	30.023 
02:10	56.0	56.0	56.0	80	49.9	0	0	---	0.00	30.023 
02:15	56.0	56.0	56.0	80	49.9	0	0	---	0.00	30.026 
02:20	56.0	56.0	56.0	80	49.9	0	0	---	0.00	30.026 
02:25	55.9	55.9	55.9	81	50.2	0	0	---	0.00	30.026 
02:30	55.7	55.7	55.7	81	50.0	0	0	---	0.00	30.027 
02:35	55.7	55.7	55.7	81	50.0	0	0	---	0.00	30.027 
02:40	55.6	55.6	55.6	82	50.2	0	0	---	0.00	30.027 
02:45	55.6	55.6	55.6	82	50.2	0	0	---	0.00	30.023 
02:50	55.4	55.4	55.4	82	50.0	0	0	---	0.00	30.023 
02:55	55.3	55.3	55.3	83	50.2	0	0	---	0.00	30.023 
03:00	55.1	55.1	55.1	83	50.0	0	0	---	0.00	30.025 
03:05	55.1	55.1	55.1	84	50.4	0	0	---	0.00	30.025 
03:10	55.0	55.0	55.0	84	50.3	0	0	---	0.00	30.025 
03:15	54.8	54.8	54.8	84	50.1	0	0	---	0.00	30.026 
03:20	54.8	54.8	54.8	84	50.1	0	0	---	0.00	30.026 
03:25	54.7	54.7	54.7	85	50.3	0	0	---	0.00	30.026 
03:30	54.5	54.5	54.5	85	50.1	0	0	---	0.00	30.026 
03:35	54.5	54.5	54.5	85	50.1	0	0	---	0.00	30.026 
03:40	54.5	54.5	54.5	85	50.1	0	0	---	0.00	30.026 
03:45	54.5	54.5	54.5	85	50.1	0	0	---	0.00	30.025 
03:50	54.4	54.4	54.4	85	50.0	0	0	---	0.00	30.025 
03:55	54.4	54.4	54.4	85	50.0	0	0	---	0.00	30.025 
04:00	54.2	54.2	54.2	85	49.8	0	0	---	0.00	30.026 
04:05	54.1	54.1	54.1	85	49.7	0	0	---	0.00	30.026 
04:10	54.1	54.1	54.1	86	50.0	0	0	---	0.00	30.026 
04:15	53.9	53.9	53.9	86	49.8	0	0	---	0.00	30.034 
04:20	53.9	53.9	53.9	86	49.8	0	0	---	0.00	30.034 
04:25	53.8	53.8	53.8	86	49.7	0	0	---	0.00	30.034 
04:30	53.8	53.8	53.8	87	50.0	0	0	---	0.00	30.027 
04:35	53.6	53.6	53.6	87	49.8	0	0	---	0.00	30.027 
04:40	53.6	53.6	53.6	87	49.8	0	0	---	0.00	30.027 
04:45	53.8	53.8	53.8	88	50.3	0	0	---	0.00	30.036 
04:50	53.8	53.8	53.8	88	50.3	0	0	---	0.00	30.036 
04:55	53.9	53.9	53.9	88	50.4	0	0	---	0.00	30.036 
05:00	54.1	54.1	54.1	88	50.6	0	0	---	0.00	30.039 
05:05	54.2	54.2	54.2	88	50.7	0	0	---	0.00	30.039 
05:10	54.5	54.5	54.5	88	51.0	0	0	---	0.00	30.039 
05:15	54.7	54.7	54.7	87	50.9	0	0	---	0.00	30.047 
05:20	54.8	54.8	54.8	87	51.0	0	0	---	0.00	30.047 
05:25	55.0	55.0	55.0	86	50.9	0	0	---	0.00	30.047 
05:30	54.8	54.8	54.8	86	50.7	0	0	---	0.00	30.053 
05:35	54.8	54.8	54.8	86	50.7	0	0	---	0.00	30.053 
05:40	54.7	54.7	54.7	86	50.6	0	0	---	0.00	30.053 
05:45	54.7	54.7	54.7	86	50.6	0	0	---	0.00	30.054 
05:50	54.5	54.5	54.5	86	50.4	0	0	---	0.00	30.054 
05:55	54.4	54.4	54.4	86	50.3	0	0	---	0.00	30.054 
06:00	54.4	54.4	54.4	86	50.3	0	0	---	0.00	30.054 
06:05	54.2	54.2	54.2	87	50.4	0	0	---	0.00	30.054 
06:10	54.1	54.1	54.1	87	50.3	0	0	---	0.00	30.054 
06:15	53.9	53.9	53.9	87	50.1	0	0	---	0.00	30.054 
06:20	53.9	53.9	53.9	87	50.1	0	0	---	0.00	30.054 
06:25	53.8	53.8	53.8	88	50.3	0	0	---	0.00	30.054 
06:30	53.6	53.6	53.6	88	50.1	0	0	---	0.00	30.054 
06:35	53.5	53.5	53.5	88	50.0	0	0	---	0.00	30.054 
06:40	53.3	53.3	53.3	88	49.8	0	0	---	0.00	30.054 
06:45	53.2	53.2	53.2	88	49.7	0	0	---	0.00	30.058 
06:50	53.1	53.1	53.1	88	49.6	0	0	---	0.00	30.058 
06:55	52.9	52.9	52.9	89	49.7	0	0	---	0.00	30.058 
07:00	52.8	52.8	52.8	89	49.6	0	0	---	0.00	30.064 
07:05	52.6	52.6	52.6	89	49.4	0	0	---	0.00	30.064 
07:10	52.5	52.5	52.5	89	49.4	0	0	---	0.00	30.064 
07:15	52.3	52.3	52.3	89	49.2	0	0	---	0.00	30.076 
07:20	52.2	52.2	52.2	90	49.4	0	0	---	0.00	30.076 
07:25	52.2	52.2	52.2	90	49.4	0	0	---	0.00	30.076 
07:30	52.0	52.0	52.0	90	49.2	0	0	---	0.00	30.081 
07:35	52.0	52.0	52.0	90	49.2	0	0	---	0.00	30.081 
07:40	52.0	52.0	52.0	90	49.2	0	0	---	0.00	30.081 
07:45	52.0	52.0	52.0	91	49.5	0	0	---	0.00	30.093 
07:50	52.0	52.0	52.0	91	49.5	0	0	---	0.00	30.093 
07:55	52.0	52.0	52.0	91	49.5	0	0	---	0.00	30.093 
08:00	52.2	52.2	52.2	91	49.7	0	0	---	0.00	30.092 
08:05	52.3	52.3	52.3	92	50.0	0	0	---	0.00	30.092 
08:10	52.6	52.6	52.6	92	50.3	0	0	---	0.00	30.092 
08:15	52.8	52.8	52.8	92	50.5	0	0	---	0.00	30.098 
08:20	52.9	52.9	52.9	92	50.6	0	0	---	0.00	30.098 
08:25	53.2	53.2	53.2	92	50.9	0	0	---	0.00	30.098 
08:30	53.3	53.3	53.3	92	51.0	0	0	---	0.00	30.098 
08:35	53.9	53.9	53.9	93	51.9	0	0	---	0.00	30.098 
08:40	54.4	54.4	54.4	93	52.4	0	0	---	0.00	30.098 
08:45	54.7	54.7	54.7	92	52.4	0	0	---	0.00	30.095 
08:50	55.1	55.1	55.1	92	52.8	0	0	---	0.00	30.095 
08:55	55.6	55.6	55.6	92	53.3	0	0	---	0.00	30.095 
09:00	56.2	56.2	56.2	92	53.9	0	0	---	0.00	30.093 
09:05	56.9	56.9	56.9	90	54.0	0	0	---	0.00	30.093 
09:10	57.6	57.6	57.6	87	53.8	0	0	---	0.00	30.093 
09:15	58.4	58.4	58.4	84	53.6	0	1	270	0.00	30.095 
09:20	59.2	59.2	59.2	82	53.7	0	1	45	0.00	30.095 
09:25	59.8	59.8	59.8	80	53.6	0	0	---	0.00	30.095 
09:30	60.4	60.4	60.4	76	52.8	0	0	---	0.00	30.093 
09:35	61.2	61.2	61.2	72	52.1	0	1	45	0.00	30.093 
09:40	62.0	62.0	62.0	70	52.1	0	1	45	0.00	30.093 
09:45	62.7	62.7	62.7	68	52.0	0	1	45	0.00	30.097 
09:50	63.4	63.4	63.4	65	51.4	0	1	45	0.00	30.097 
09:55	63.9	63.9	63.9	65	51.9	0	1	45	0.00	30.097 
10:00	64.5	64.5	64.5	64	52.0	0	1	45	0.00	30.105 
10:05	65.0	65.0	65.0	63	52.1	0	1	45	0.00	30.105 
10:10	65.3	65.3	65.3	60	51.1	0	1	45	0.00	30.105 
10:15	65.6	65.6	65.6	60	51.3	0	3	248	0.00	30.111 
10:20	66.0	66.0	66.0	60	51.7	0	2	248	0.00	30.111 
10:25	66.3	66.3	66.3	61	52.4	0	1	248	0.00	30.111 
10:30	66.6	66.6	66.6	60	52.3	0	1	248	0.00	30.110 
10:35	66.9	66.9	66.9	59	52.1	0	1	248	0.00	30.110 
10:40	67.3	67.3	67.3	60	52.9	0	1	248	0.00	30.110 
10:45	68.1	68.1	68.1	60	53.7	0	1	248	0.00	30.109 
10:50	69.1	69.1	69.1	57	53.2	0	1	248	0.00	30.109 
10:55	69.6	69.6	69.6	54	52.2	0	2	248	0.00	30.109 
11:00	70.1	70.1	70.1	53	52.2	1	2	248	0.00	30.116 
11:05	70.4	70.4	70.4	52	51.9	1	3	248	0.00	30.116 
11:10	70.8	70.8	70.8	49	50.7	0	2	248	0.00	30.116 
11:15	71.3	71.3	71.3	49	51.1	0	2	248	0.00	30.116 
11:20	71.6	71.6	71.6	48	50.9	0	2	248	0.00	30.116 
11:25	72.1	72.1	72.1	48	51.3	0	1	248	0.00	30.116 
11:30	72.8	72.8	72.8	46	50.8	0	2	248	0.00	30.116 
11:35	73.2	73.2	73.2	45	50.6	1	3	248	0.00	30.116 
11:40	72.8	72.8	72.8	35	43.5	1	2	270	0.00	30.116 
11:45	73.0	73.0	73.0	39	46.6	0	2	270	0.00	30.112 
11:50	73.2	73.2	73.2	35	43.9	0	2	270	0.00	30.112 
11:55	73.5	73.5	73.5	37	45.6	1	3	292	0.00	30.112 
12:00	73.2	73.2	73.2	36	44.6	1	3	292	0.00	30.113 
12:05	73.5	73.5	73.5	40	47.7	0	2	292	0.00	30.113 
12:10	74.2	74.2	74.2	38	46.9	0	2	292	0.00	30.113 
12:15	74.4	74.4	74.4	37	46.4	1	2	292	0.00	30.116 
12:20	74.2	74.2	74.2	40	48.3	1	3	315	0.00	30.116 
12:25	74.2	74.2	74.2	40	48.3	1	2	315	0.00	30.116 
12:30	74.4	74.4	74.4	36	45.7	1	3	292	0.00	30.118 
12:35	74.6	74.6	74.6	35	45.1	1	4	292	0.00	30.118 
12:40	75.1	75.1	77.2	34	44.8	0	2	292	0.00	30.118 
12:45	75.3	75.3	77.3	34	45.0	1	4	270	0.00	30.114 
12:50	74.9	74.9	74.9	34	44.6	1	5	270	0.00	30.114 
12:55	75.3	75.3	77.4	36	46.5	0	3	270	0.00	30.114 
13:00	75.3	75.3	77.2	33	44.2	1	3	338	0.00	30.112 
13:05	75.1	75.1	77.3	36	46.3	0	1	315	0.00	30.112 
13:10	75.3	75.3	77.2	33	44.2	2	4	292	0.00	30.112 
13:15	75.4	75.4	77.4	35	45.8	1	3	292	0.00	30.108 
13:20	75.6	75.6	77.3	32	43.6	0	2	292	0.00	30.108 
13:25	76.3	76.3	77.6	33	45.1	0	1	292	0.00	30.108 
13:30	77.0	77.0	77.8	32	44.9	1	3	292	0.00	30.103 
13:35	77.4	77.4	77.8	30	43.5	1	2	292	0.00	30.103 
13:40	77.4	77.4	78.0	32	45.2	0	2	292	0.00	30.103 
13:45	77.9	77.9	78.2	32	45.6	1	2	90	0.00	30.097 
13:50	77.7	77.7	78.0	30	43.8	1	3	90	0.00	30.097 
13:55	77.4	77.4	77.9	31	44.4	1	3	270	0.00	30.097 
14:00	77.6	77.6	78.0	31	44.5	0	1	270	0.00	30.097 
14:05	77.9	77.9	78.1	31	44.8	1	3	270	0.00	30.097 
14:10	77.9	77.9	78.1	30	43.9	1	3	90	0.00	30.097 
14:15	78.1	78.1	78.2	30	44.1	1	4	90	0.00	30.093 
14:20	77.9	77.9	78.0	29	43.1	1	4	0	0.00	30.093 
14:25	77.7	77.7	78.0	30	43.8	1	2	0	0.00	30.093 
14:30	78.1	78.1	78.0	28	42.3	0	2	315	0.00	30.085 
14:35	78.5	78.5	78.2	28	42.7	0	3	270	0.00	30.085 
14:40	78.5	78.5	78.2	28	42.7	1	3	338	0.00	30.085 
14:45	78.6	78.6	78.2	27	41.8	0	2	338	0.00	30.082 
14:50	78.6	78.6	78.2	27	41.8	1	4	292	0.00	30.082 
14:55	78.8	78.8	78.3	26	41.0	1	5	270	0.00	30.082 
15:00	78.8	78.8	78.3	26	41.0	1	3	270	0.00	30.073 
15:05	79.2	79.2	78.5	27	42.3	1	3	292	0.00	30.073 
15:10	79.2	79.2	78.4	25	40.3	1	2	292	0.00	30.073 
15:15	78.6	78.6	78.2	27	41.8	0	1	315	0.00	30.074 
15:20	79.0	79.0	78.4	26	41.2	0	2	112	0.00	30.074 
15:25	79.2	79.2	78.4	25	40.3	1	3	315	0.00	30.074 
15:30	79.2	79.2	78.4	25	40.3	1	3	315	0.00	30.072 
15:35	79.2	79.2	78.4	25	40.3	0	1	292	0.00	30.072 
15:40	79.4	79.4	78.6	26	41.5	0	2	45	0.00	30.072 
15:45	79.2	79.2	78.6	28	43.3	1	3	315	0.00	30.069 
15:50	79.0	79.0	78.4	26	41.2	1	4	315	0.00	30.069 
15:55	79.4	79.4	78.6	26	41.5	0	3	135	0.00	30.069 
16:00	79.6	79.6	78.6	25	40.7	0	3	292	0.00	30.064 
16:05	79.6	79.6	78.6	25	40.7	1	3	292	0.00	30.064 
16:10	79.8	79.8	78.7	24	39.8	0	3	292	0.00	30.064 
16:15	79.8	79.8	78.7	24	39.8	1	3	292	0.00	30.061 
16:20	79.8	79.8	78.7	24	39.8	1	4	292	0.00	30.061 
16:25	79.4	79.4	78.5	25	40.5	1	3	292	0.00	30.061 
16:30	79.2	79.2	78.4	25	40.3	0	1	292	0.00	30.065 
16:35	79.6	79.6	78.7	26	41.7	1	3	292	0.00	30.065 
16:40	79.2	79.2	78.5	26	41.3	0	1	292	0.00	30.065 
16:45	78.8	78.8	78.3	26	41.0	0	2	292	0.00	30.061 
16:50	78.8	78.8	78.3	26	41.0	1	4	292	0.00	30.061 
16:55	79.0	79.0	78.4	27	42.1	0	2	292	0.00	30.061 
17:00	79.2	79.2	78.5	27	42.3	0	1	292	0.00	30.062 
17:05	79.0	79.0	78.4	26	41.2	1	3	90	0.00	30.062 
17:10	79.0	79.0	78.4	26	41.2	0	2	315	0.00	30.062 
17:15	79.0	79.0	78.4	26	41.2	1	3	315	0.00	30.059 
17:20	79.0	79.0	78.4	26	41.2	1	2	315	0.00	30.059 
17:25	79.2	79.2	78.5	27	42.3	0	2	315	0.00	30.059 
17:30	79.2	79.2	78.5	27	42.3	0	1	315	0.00	30.058 
17:35	79.0	79.0	78.4	27	42.1	1	3	315	0.00	30.058 
17:40	79.0	79.0	78.4	27	42.1	0	1	315	0.00	30.058 
17:45	78.8	78.8	78.3	27	42.0	0	2	22	0.00	30.058 
17:50	78.6	78.6	78.2	27	41.8	1	2	22	0.00	30.058 
17:55	78.5	78.5	78.2	28	42.7	0	1	0	0.00	30.058 
18:00	78.5	78.5	78.2	27	41.7	1	2	0	0.00	30.058 
18:05	78.5	78.5	78.2	27	41.7	1	2	292	0.00	30.058 
18:10	78.3	78.3	78.1	28	42.5	0	1	292	0.00	30.058 
18:15	78.1	78.1	78.0	28	42.3	0	3	292	0.00	30.060 
18:20	77.7	77.7	77.8	28	42.0	0	1	292	0.00	30.060 
18:25	77.6	77.6	77.9	29	42.8	0	1	292	0.00	30.060 
18:30	77.4	77.4	77.8	30	43.5	0	1	292	0.00	30.061 
18:35	77.2	77.2	77.9	32	45.0	0	3	158	0.00	30.061 
18:40	76.8	76.8	77.8	33	45.5	0	0	---	0.00	30.061 
18:45	76.5	76.5	77.7	33	45.2	0	1	158	0.00	30.064 
18:50	76.3	76.3	77.6	34	45.8	0	0	---	0.00	30.064 
18:55	76.1	76.1	77.4	32	44.1	0	1	158	0.00	30.064 
19:00	76.0	76.0	77.5	34	45.6	0	1	158	0.00	30.066 
19:05	75.6	75.6	77.4	34	45.2	0	1	158	0.00	30.066 
19:10	75.4	75.4	77.4	35	45.8	0	0	---	0.00	30.066 
19:15	75.1	75.1	77.3	36	46.3	0	1	158	0.00	30.066 
19:20	74.9	74.9	74.9	36	46.1	0	0	---	0.00	30.066 
19:25	74.6	74.6	74.6	37	46.6	0	0	---	0.00	30.066 
19:30	74.2	74.2	74.2	38	46.9	0	0	---	0.00	30.071 
19:35	73.7	73.7	73.7	38	46.5	0	0	---	0.00	30.071 
19:40	73.3	73.3	73.3	39	46.8	0	0	---	0.00	30.071 
19:45	72.8	72.8	72.8	40	47.1	0	0	---	0.00	30.076 
19:50	72.3	72.3	72.3	40	46.6	0	0	---	0.00	30.076 
19:55	72.0	72.0	72.0	42	47.6	0	0	---	0.00	30.076 
20:00	71.5	71.5	71.5	42	47.2	0	0	---	0.00	30.074 
20:05	71.1	71.1	71.1	43	47.5	0	0	---	0.00	30.074 
20:10	70.8	70.8	70.8	43	47.2	0	0	---	0.00	30.074 
20:15	70.3	70.3	70.3	44	47.3	0	0	---	0.00	30.078 
20:20	69.9	69.9	69.9	45	47.6	0	0	---	0.00	30.078 
20:25	69.6	69.6	69.6	46	47.9	0	0	---	0.00	30.078 
20:30	69.3	69.3	69.3	46	47.6	0	0	---	0.00	30.080 
20:35	68.9	68.9	68.9	47	47.8	0	0	---	0.00	30.080 
20:40	68.6	68.6	68.6	47	47.6	0	0	---	0.00	30.080 
20:45	68.4	68.4	68.4	48	47.9	0	0	---	0.00	30.086 
20:50	68.1	68.1	68.1	48	47.7	0	0	---	0.00	30.086 
20:55	67.9	67.9	67.9	48	47.5	0	0	---	0.00	30.086 
21:00	67.6	67.6	67.6	50	48.3	0	0	---	0.00	30.091 
21:05	67.1	67.1	67.1	50	47.8	0	0	---	0.00	30.091 
21:10	66.8	66.8	66.8	51	48.1	0	0	---	0.00	30.091 
21:15	66.4	66.4	66.4	53	48.7	0	0	---	0.00	30.085 
21:20	66.0	66.0	66.0	54	48.9	0	0	---	0.00	30.085 
21:25	65.5	65.5	65.5	55	48.9	0	0	---	0.00	30.085 
21:30	65.0	65.0	65.0	56	48.9	0	0	---	0.00	30.085 
21:35	64.3	64.3	64.3	58	49.2	0	0	---	0.00	30.085 
21:40	63.9	63.9	63.9	59	49.3	0	0	---	0.00	30.085 
21:45	63.4	63.4	63.4	61	49.7	0	0	---	0.00	30.092 
21:50	63.1	63.1	63.1	62	49.9	0	0	---	0.00	30.092 
21:55	62.7	62.7	62.7	62	49.5	0	0	---	0.00	30.092 
22:00	62.4	62.4	62.4	63	49.6	0	0	---	0.00	30.091 
22:05	62.1	62.1	62.1	63	49.3	0	0	---	0.00	30.091 
22:10	61.8	61.8	61.8	64	49.5	0	0	---	0.00	30.091 
22:15	61.5	61.5	61.5	64	49.2	0	0	---	0.00	30.087 
22:20	61.3	61.3	61.3	65	49.4	0	0	---	0.00	30.087 
22:25	61.0	61.0	61.0	66	49.6	0	0	---	0.00	30.087 
22:30	60.7	60.7	60.7	67	49.7	0	0	---	0.00	30.088 
22:35	60.5	60.5	60.5	68	49.9	0	0	---	0.00	30.088 
22:40	60.2	60.2	60.2	69	50.0	0	0	---	0.00	30.088 
22:45	60.1	60.1	60.1	70	50.3	0	0	---	0.00	30.092 
22:50	59.9	59.9	59.9	70	50.1	0	0	---	0.00	30.092 
22:55	59.8	59.8	59.8	71	50.4	0	0	---	0.00	30.092 
23:00	59.8	59.8	59.8	70	50.0	0	0	---	0.00	30.094 
23:05	60.1	60.1	60.1	68	49.5	0	0	---	0.00	30.094 
23:10	60.7	60.7	60.7	66	49.3	0	0	---	0.00	30.094 
23:15	61.3	61.3	61.3	65	49.4	0	0	---	0.00	30.097 
23:20	61.8	61.8	61.8	64	49.5	0	0	---	0.00	30.097 
23:25	62.1	62.1	62.1	64	49.8	0	1	158	0.00	30.097 
23:30	62.1	62.1	62.1	64	49.8	0	1	158	0.00	30.102 
23:35	62.1	62.1	62.1	64	49.8	0	0	---	0.00	30.102 
23:40	62.0	62.0	62.0	64	49.7	0	1	158	0.00	30.102 
23:45	61.8	61.8	61.8	65	49.9	0	1	158	0.00	30.104 
23:50	61.5	61.5	61.5	65	49.6	0	0	---	0.00	30.104 
23:55	61.3	61.3	61.3	66	49.8	0	0	---	0.00	30.104 

CoCoRaHS
IN-AL-39
A2 Web Hosting
Creative Commons License
GoDaddy
search engine by freefind advanced

loaded 2018-11-22 06:45:16 • last modified 2010-11-18 10:43:29
Privacy PolicyDisclaimer
• wx.awcolley.com is powered by PmWiki v.2002016 •
• all content (unless otherwise noted) © 2018 A W Colley